createdAt,value
2022-11-12T00:02:34.640Z,19.75
2022-11-12T00:05:23.991Z,19.08
2022-11-12T00:08:11.782Z,22.48
2022-11-12T00:10:59.528Z,21.83
2022-11-12T00:13:47.523Z,23.23
2022-11-12T00:16:35.179Z,17.88
2022-11-12T00:19:22.496Z,15.43
2022-11-12T00:22:11.602Z,16.02
2022-11-12T00:24:59.768Z,17.48
2022-11-12T00:27:47.485Z,19.33
2022-11-12T00:30:36.633Z,19.40
2022-11-12T00:33:24.375Z,16.65
2022-11-12T00:39:01.507Z,19.50
2022-11-12T00:41:49.474Z,18.02
2022-11-12T00:44:36.974Z,20.65
2022-11-12T00:47:24.964Z,17.35
2022-11-12T00:52:59.813Z,21.35
2022-11-12T00:55:49.071Z,20.60
2022-11-12T00:58:37.801Z,23.38
2022-11-12T01:01:26.366Z,26.05
2022-11-12T01:04:14.142Z,28.30
2022-11-12T01:07:01.773Z,23.02
2022-11-12T01:09:49.412Z,30.65
2022-11-12T01:12:38.975Z,27.85
2022-11-12T01:15:27.025Z,28.33
2022-11-12T01:18:14.394Z,34.88
2022-11-12T01:21:03.206Z,32.42
2022-11-12T01:23:51.034Z,32.95
2022-11-12T01:26:39.704Z,25.17
2022-11-12T01:29:28.748Z,36.10
2022-11-12T01:32:16.111Z,24.02
2022-11-12T01:35:03.941Z,23.05
2022-11-12T01:37:51.550Z,32.00
2022-11-12T01:40:39.226Z,29.58
2022-11-12T01:43:27.225Z,31.98
2022-11-12T01:46:21.416Z,24.52
2022-11-12T01:49:15.278Z,26.13
2022-11-12T01:52:14.871Z,21.55
2022-11-12T01:55:08.465Z,23.60
2022-11-12T01:58:00.773Z,24.92
2022-11-12T02:00:49.684Z,28.23
2022-11-12T02:03:39.419Z,24.92
2022-11-12T02:06:26.682Z,27.85
2022-11-12T02:09:15.145Z,26.95
2022-11-12T02:12:02.757Z,22.25
2022-11-12T02:14:49.847Z,22.20
2022-11-12T02:17:37.107Z,24.05
2022-11-12T02:20:26.904Z,20.13
2022-11-12T02:23:15.837Z,21.73
2022-11-12T02:26:03.987Z,19.40
2022-11-12T02:28:51.800Z,21.90
2022-11-12T02:31:39.423Z,27.48
2022-11-12T02:34:27.178Z,17.90
2022-11-12T02:37:14.871Z,16.10
2022-11-12T02:40:03.770Z,17.90
2022-11-12T02:42:51.512Z,21.77
2022-11-12T02:45:39.515Z,21.63
2022-11-12T02:48:27.302Z,21.42
2022-11-12T02:51:18.420Z,24.73
2022-11-12T02:54:06.524Z,22.15
2022-11-12T02:56:55.556Z,23.35
2022-11-12T02:59:45.919Z,25.38
2022-11-12T03:02:33.729Z,24.15
2022-11-12T03:05:21.863Z,26.77
2022-11-12T03:08:10.897Z,19.67
2022-11-12T03:10:58.191Z,18.35
2022-11-12T03:16:35.368Z,16.33
2022-11-12T03:19:22.969Z,20.50
2022-11-12T03:22:10.855Z,16.40
2022-11-12T03:24:58.484Z,16.00
2022-11-12T03:27:46.087Z,21.85
2022-11-12T03:33:24.497Z,20.88
2022-11-12T03:36:12.290Z,23.88
2022-11-12T03:38:59.729Z,16.52
2022-11-12T03:44:35.173Z,20.13
2022-11-12T03:47:24.096Z,25.02
2022-11-12T03:50:12.263Z,18.05
2022-11-12T03:53:01.202Z,23.75
2022-11-12T03:55:48.694Z,25.67
2022-11-12T03:58:36.280Z,18.58
2022-11-12T04:01:24.085Z,20.65
2022-11-12T04:07:18.281Z,19.63
2022-11-12T04:10:06.741Z,20.17
2022-11-12T04:13:12.057Z,20.85
2022-11-12T04:16:20.124Z,17.00
2022-11-12T04:19:27.586Z,14.43
2022-11-12T04:22:16.927Z,18.95
2022-11-12T04:25:22.538Z,18.30
2022-11-12T04:28:10.371Z,18.95
2022-11-12T04:30:56.927Z,14.77
2022-11-12T04:33:44.598Z,17.05
2022-11-12T04:36:32.141Z,15.60
2022-11-12T04:39:21.242Z,17.75
2022-11-12T04:42:28.387Z,20.48
2022-11-12T04:45:15.848Z,21.80
2022-11-12T04:51:00.343Z,18.55
2022-11-12T04:53:51.527Z,15.18
2022-11-12T04:56:40.374Z,16.75
2022-11-12T04:59:28.036Z,16.55
2022-11-12T05:05:03.425Z,21.25
2022-11-12T05:07:51.532Z,17.02
2022-11-12T05:10:39.458Z,27.90
2022-11-12T05:13:29.392Z,18.70
2022-11-12T05:16:16.905Z,19.05
2022-11-12T05:22:17.424Z,21.57
2022-11-12T05:25:10.759Z,19.33
2022-11-12T05:27:58.608Z,13.10
2022-11-12T05:30:49.487Z,16.67
2022-11-12T05:33:36.934Z,16.60
2022-11-12T05:36:24.432Z,18.48
2022-11-12T05:39:12.043Z,15.25
2022-11-12T05:42:12.837Z,16.02
2022-11-12T05:45:00.629Z,15.48
2022-11-12T05:47:50.924Z,16.30
2022-11-12T05:50:45.422Z,16.88
2022-11-12T05:53:45.878Z,17.85
2022-11-12T05:59:22.293Z,13.73
2022-11-12T06:02:10.450Z,19.70
2022-11-12T06:04:59.360Z,15.82
2022-11-12T06:07:46.806Z,15.30
2022-11-12T06:10:34.818Z,18.50
2022-11-12T06:13:25.261Z,15.93
2022-11-12T06:16:12.761Z,18.40
2022-11-12T06:19:00.599Z,14.77
2022-11-12T06:21:49.941Z,13.02
2022-11-12T06:24:37.952Z,15.68
2022-11-12T06:27:25.920Z,12.75
2022-11-12T06:30:14.103Z,14.13
2022-11-12T06:33:01.632Z,14.43
2022-11-12T06:35:49.127Z,12.88
2022-11-12T06:38:41.132Z,16.20
2022-11-12T06:41:28.438Z,16.00
2022-11-12T06:44:21.798Z,14.70
2022-11-12T06:47:10.962Z,21.63
2022-11-12T06:49:58.870Z,12.95
2022-11-12T06:52:46.342Z,14.75
2022-11-12T06:55:35.591Z,14.90
2022-11-12T06:58:22.884Z,19.77
2022-11-12T07:01:15.111Z,13.55
2022-11-12T07:04:02.645Z,20.80
2022-11-12T07:06:50.443Z,15.15
2022-11-12T07:09:38.155Z,15.68
2022-11-12T07:12:27.242Z,17.00
2022-11-12T07:15:14.455Z,17.48
2022-11-12T07:18:01.954Z,14.07
2022-11-12T07:20:49.664Z,12.88
2022-11-12T07:23:38.427Z,11.05
2022-11-12T07:26:28.505Z,18.35
2022-11-12T07:29:35.684Z,14.68
2022-11-12T07:35:12.509Z,15.75
2022-11-12T07:37:59.885Z,15.55
2022-11-12T07:40:47.438Z,20.15
2022-11-12T07:43:37.369Z,13.55
2022-11-12T07:46:28.599Z,24.00
2022-11-12T07:49:16.027Z,16.05
2022-11-12T07:52:04.169Z,18.42
2022-11-12T07:57:39.035Z,11.27
2022-11-12T08:00:26.659Z,11.07
2022-11-12T08:03:17.721Z,16.80
2022-11-12T08:06:06.148Z,13.73
2022-11-12T08:08:54.430Z,10.43
2022-11-12T08:11:42.506Z,11.55
2022-11-12T08:17:17.004Z,13.52
2022-11-12T08:22:54.920Z,12.57
2022-11-12T08:28:31.183Z,10.25
2022-11-12T08:31:22.163Z,11.13
2022-11-12T08:34:21.399Z,10.70
2022-11-12T08:37:11.492Z,11.52
2022-11-12T08:39:59.424Z,8.82
2022-11-12T08:45:35.543Z,10.43
2022-11-12T08:48:23.051Z,7.88
2022-11-12T08:51:10.247Z,9.57
2022-11-12T08:53:59.159Z,10.68
2022-11-12T08:56:47.132Z,10.70
2022-11-12T08:59:36.818Z,11.38
2022-11-12T09:02:24.485Z,7.72
2022-11-12T09:05:11.746Z,6.05
2022-11-12T09:08:00.354Z,7.72
2022-11-12T09:10:50.333Z,7.60
2022-11-12T09:13:39.315Z,11.45
2022-11-12T09:16:27.235Z,7.85
2022-11-12T09:19:15.039Z,6.55
2022-11-12T09:22:02.426Z,7.25
2022-11-12T09:24:50.266Z,8.10
2022-11-12T09:27:41.197Z,6.10
2022-11-12T09:30:31.960Z,7.65
2022-11-12T09:33:23.724Z,5.45
2022-11-12T09:36:11.675Z,12.07
2022-11-12T09:38:59.087Z,7.00
2022-11-12T09:41:46.609Z,9.93
2022-11-12T09:44:40.209Z,6.65
2022-11-12T09:47:33.544Z,6.93
2022-11-12T09:50:26.382Z,8.02
2022-11-12T09:53:18.259Z,10.02
2022-11-12T09:56:11.877Z,10.70
2022-11-12T09:58:59.565Z,9.02
2022-11-12T10:05:02.182Z,7.20
2022-11-12T10:08:09.184Z,9.32
2022-11-12T10:11:11.323Z,8.68
2022-11-12T10:14:13.609Z,10.13
2022-11-12T10:17:10.656Z,6.80
2022-11-12T10:20:16.538Z,6.75
2022-11-12T10:23:17.512Z,7.03
2022-11-12T10:26:13.869Z,10.38
2022-11-12T10:29:13.880Z,8.50
2022-11-12T10:32:05.720Z,5.65
2022-11-12T10:34:54.255Z,7.65
2022-11-12T10:37:49.839Z,9.48
2022-11-12T10:40:40.207Z,5.93
2022-11-12T10:43:28.097Z,8.68
2022-11-12T10:46:21.988Z,11.05
2022-11-12T10:49:26.190Z,7.75
2022-11-12T10:52:24.580Z,10.40
2022-11-12T10:55:20.964Z,11.90
2022-11-12T10:58:21.263Z,6.95
2022-11-12T11:01:18.831Z,12.65
2022-11-12T11:04:16.752Z,8.82
2022-11-12T11:07:08.801Z,4.57
2022-11-12T11:09:58.744Z,5.50
2022-11-12T11:12:47.936Z,4.57
2022-11-12T11:15:35.525Z,6.03
2022-11-12T11:18:23.963Z,8.65
2022-11-12T11:21:47.337Z,8.35
2022-11-12T11:24:50.166Z,6.88
2022-11-12T11:27:49.718Z,8.40
2022-11-12T11:30:45.907Z,4.95
2022-11-12T11:33:46.788Z,3.83
2022-11-12T11:36:43.401Z,4.78
2022-11-12T11:39:46.725Z,4.60
2022-11-12T11:42:58.802Z,3.97
2022-11-12T11:46:07.198Z,4.30
2022-11-12T11:49:20.706Z,4.15
2022-11-12T11:52:41.814Z,4.97
2022-11-12T11:55:52.635Z,6.03
2022-11-12T11:59:00.995Z,5.57
2022-11-12T12:02:12.165Z,4.45
2022-11-12T12:05:22.818Z,4.45
2022-11-12T12:08:17.929Z,5.00
2022-11-12T12:11:13.371Z,3.90
2022-11-12T12:14:23.882Z,4.90
2022-11-12T12:17:27.853Z,8.18
2022-11-12T12:20:30.335Z,4.18
2022-11-12T12:23:28.703Z,3.90
2022-11-12T12:29:17.131Z,5.60
2022-11-12T12:32:13.315Z,4.25
2022-11-12T12:35:11.844Z,3.60
2022-11-12T12:38:12.700Z,5.53
2022-11-12T12:41:11.058Z,5.57
2022-11-12T12:46:58.480Z,3.50
2022-11-12T12:49:48.933Z,3.08
2022-11-12T12:53:05.463Z,6.97
2022-11-12T12:55:54.783Z,4.88
2022-11-12T12:58:46.018Z,3.78
2022-11-12T13:01:37.447Z,7.65
2022-11-12T13:04:55.210Z,4.88
2022-11-12T13:07:46.847Z,4.25
2022-11-12T13:10:56.173Z,4.28
2022-11-12T13:13:43.820Z,4.57
2022-11-12T13:17:00.444Z,4.60
2022-11-12T13:20:09.408Z,3.00
2022-11-12T13:25:44.181Z,4.28
2022-11-12T13:28:32.034Z,7.15
2022-11-12T13:31:30.049Z,6.20
2022-11-12T13:34:27.280Z,6.90
2022-11-12T13:37:22.203Z,5.43
2022-11-12T13:40:16.186Z,5.22
2022-11-12T13:43:31.420Z,6.32
2022-11-12T13:46:28.928Z,5.88
2022-11-12T13:49:18.849Z,7.18
2022-11-12T13:52:08.299Z,8.40
2022-11-12T13:55:03.799Z,6.20
2022-11-12T13:57:52.097Z,6.00
2022-11-12T14:00:40.169Z,4.88
2022-11-12T14:03:33.088Z,4.68
2022-11-12T14:06:33.324Z,6.22
2022-11-12T14:09:41.887Z,6.00
2022-11-12T14:13:12.355Z,6.85
2022-11-12T14:16:21.595Z,6.07
2022-11-12T14:19:43.913Z,6.97
2022-11-12T14:22:41.423Z,4.43
2022-11-12T14:25:30.857Z,6.77
2022-11-12T14:28:31.427Z,4.85
2022-11-12T14:31:26.088Z,11.90
2022-11-12T14:34:29.021Z,4.05
2022-11-12T14:37:39.815Z,7.43
2022-11-12T14:40:35.310Z,7.57
2022-11-12T14:43:32.078Z,7.32
2022-11-12T14:46:26.924Z,6.65
2022-11-12T14:49:22.997Z,4.57
2022-11-12T14:52:17.369Z,5.22
2022-11-12T14:55:13.883Z,6.57
2022-11-12T14:58:04.379Z,7.95
2022-11-12T15:00:55.077Z,5.88
2022-11-12T15:03:49.080Z,6.00
2022-11-12T15:06:36.834Z,9.60
2022-11-12T15:12:28.214Z,11.50
2022-11-12T15:15:25.320Z,9.50
2022-11-12T15:18:19.740Z,6.75
2022-11-12T15:21:16.347Z,6.85
2022-11-12T15:24:17.726Z,10.07
2022-11-12T15:27:36.133Z,9.52
2022-11-12T15:30:28.787Z,5.53
2022-11-12T15:33:22.555Z,7.22
2022-11-12T15:36:18.216Z,9.23
2022-11-12T15:39:14.981Z,9.05
2022-11-12T15:42:06.114Z,10.32
2022-11-12T15:45:01.114Z,8.93
2022-11-12T15:47:50.243Z,10.43
2022-11-12T15:50:39.149Z,6.80
2022-11-12T15:53:27.521Z,8.68
2022-11-12T15:56:19.516Z,7.72
2022-11-12T15:59:07.835Z,10.52
2022-11-12T16:01:55.662Z,10.88
2022-11-12T16:04:44.573Z,16.23
2022-11-12T16:07:32.279Z,15.60
2022-11-12T16:10:21.054Z,12.10
2022-11-12T16:13:15.148Z,11.18
2022-11-12T16:16:06.147Z,10.93
2022-11-12T16:18:53.895Z,12.02
2022-11-12T16:21:42.891Z,17.77
2022-11-12T16:24:30.787Z,14.73
2022-11-12T16:27:20.564Z,8.65
2022-11-12T16:30:16.602Z,14.30
2022-11-12T16:33:04.262Z,62.53
2022-11-12T16:35:52.155Z,13.13
2022-11-12T16:38:40.902Z,22.52
2022-11-12T16:41:28.504Z,22.92
2022-11-12T16:44:16.004Z,17.25
2022-11-12T16:47:05.522Z,14.38
2022-11-12T16:49:52.873Z,15.48
2022-11-12T16:52:40.602Z,9.32
2022-11-12T16:55:29.183Z,12.02
2022-11-12T16:58:16.785Z,11.77
2022-11-12T17:01:05.469Z,9.45
2022-11-12T17:03:53.934Z,12.10
2022-11-12T17:06:42.267Z,10.98
2022-11-12T17:09:29.788Z,10.40
2022-11-12T17:12:18.884Z,12.90
2022-11-12T17:15:08.792Z,96.00
2022-11-12T17:17:57.036Z,28.02
2022-11-12T17:20:49.921Z,24.33
2022-11-12T17:23:38.882Z,20.48
2022-11-12T17:26:26.227Z,27.33
2022-11-12T17:29:15.337Z,77.20
2022-11-12T17:32:05.632Z,31.92
2022-11-12T17:34:53.607Z,81.85
2022-11-12T17:37:41.503Z,20.35
2022-11-12T17:40:28.974Z,19.60
2022-11-12T17:43:16.583Z,15.60
2022-11-12T17:46:07.999Z,27.35
2022-11-12T17:48:56.661Z,51.80
2022-11-12T17:51:44.310Z,45.28
2022-11-12T17:57:19.216Z,52.60
2022-11-12T18:00:08.562Z,10.65
2022-11-12T18:02:58.261Z,26.80
2022-11-12T18:05:45.993Z,13.15
2022-11-12T18:11:21.944Z,25.08
2022-11-12T18:14:09.798Z,18.60
2022-11-12T18:17:01.371Z,18.77
2022-11-12T18:19:50.118Z,13.63
2022-11-12T18:22:43.687Z,22.65
2022-11-12T18:25:34.013Z,76.25
2022-11-12T18:28:21.855Z,62.80
2022-11-12T18:31:12.455Z,116.35
2022-11-12T18:33:59.675Z,50.50
2022-11-12T18:36:48.463Z,60.22
2022-11-12T18:39:35.711Z,57.45
2022-11-12T18:42:23.724Z,51.80
2022-11-12T18:45:12.034Z,20.40
2022-11-12T18:47:59.332Z,27.83
2022-11-12T18:50:47.347Z,21.77
2022-11-12T18:53:37.297Z,25.50
2022-11-12T18:56:25.292Z,19.35
2022-11-12T18:59:12.990Z,13.77
2022-11-12T19:02:00.605Z,16.90
2022-11-12T19:04:51.099Z,15.23
2022-11-12T19:07:38.911Z,15.15
2022-11-12T19:10:28.037Z,13.77
2022-11-12T19:13:15.444Z,16.20
2022-11-12T19:16:08.602Z,12.60
2022-11-12T19:18:56.279Z,11.65
2022-11-12T19:21:44.166Z,12.38
2022-11-12T19:24:32.098Z,16.88
2022-11-12T19:27:21.095Z,16.50
2022-11-12T19:30:10.697Z,18.35
2022-11-12T19:32:57.970Z,18.33
2022-11-12T19:35:45.451Z,21.13
2022-11-12T19:38:33.962Z,25.70
2022-11-12T19:41:24.771Z,24.33
2022-11-12T19:44:13.768Z,44.15
2022-11-12T19:47:01.565Z,62.58
2022-11-12T19:49:48.935Z,40.67
2022-11-12T19:52:36.516Z,22.90
2022-11-12T19:55:25.727Z,28.00
2022-11-12T19:58:13.083Z,23.15
2022-11-12T20:01:06.872Z,26.20
2022-11-12T20:03:54.910Z,23.60
2022-11-12T20:06:42.537Z,30.85
2022-11-12T20:09:30.139Z,36.58
2022-11-12T20:12:17.488Z,29.08
2022-11-12T20:15:07.739Z,32.35
2022-11-12T20:17:58.608Z,26.98
2022-11-12T20:20:51.639Z,31.13
2022-11-12T20:23:42.970Z,24.70
2022-11-12T20:26:30.494Z,28.80
2022-11-12T20:32:07.230Z,21.55
2022-11-12T20:34:56.561Z,20.58
2022-11-12T20:37:43.957Z,21.25
2022-11-12T20:40:32.614Z,25.33
2022-11-12T20:43:20.204Z,20.85
2022-11-12T20:46:07.654Z,19.70
2022-11-12T20:48:55.322Z,30.35
2022-11-12T20:54:31.554Z,29.42
2022-11-12T20:57:19.115Z,31.73
2022-11-12T21:00:13.271Z,30.20
2022-11-12T21:03:06.215Z,24.98
2022-11-12T21:05:59.586Z,27.15
2022-11-12T21:08:48.884Z,24.45
2022-11-12T21:11:36.807Z,24.95
2022-11-12T21:14:24.731Z,32.05
2022-11-12T21:17:12.065Z,35.80
2022-11-12T21:19:59.725Z,30.98
2022-11-12T21:25:39.211Z,25.23
2022-11-12T21:28:27.380Z,26.05
2022-11-12T21:31:17.902Z,27.08
2022-11-12T21:34:07.100Z,24.30
2022-11-12T21:36:55.111Z,26.25
2022-11-12T21:39:42.502Z,22.45
2022-11-12T21:42:31.510Z,27.45
2022-11-12T21:45:19.277Z,26.48
2022-11-12T21:48:06.858Z,23.17
2022-11-12T21:50:55.179Z,22.42
2022-11-12T21:53:44.878Z,24.73
2022-11-12T21:56:34.533Z,24.90
2022-11-12T21:59:28.655Z,23.95
2022-11-12T22:02:16.900Z,24.70
2022-11-12T22:05:06.005Z,21.17
2022-11-12T22:07:53.782Z,25.70
2022-11-12T22:13:29.404Z,25.90
2022-11-12T22:16:20.858Z,25.67
2022-11-12T22:19:08.772Z,23.10
2022-11-12T22:24:43.670Z,28.25
2022-11-12T22:27:33.850Z,27.88
2022-11-12T22:30:21.537Z,27.52
2022-11-12T22:33:10.643Z,27.45
2022-11-12T22:36:01.630Z,29.92
2022-11-12T22:38:52.777Z,24.58
2022-11-12T22:41:40.615Z,34.75
2022-11-12T22:47:15.396Z,21.42
2022-11-12T22:50:04.170Z,22.45
2022-11-12T22:52:51.994Z,23.00
2022-11-12T22:55:39.557Z,22.55
2022-11-12T22:58:27.552Z,24.73
2022-11-12T23:01:22.062Z,22.75
2022-11-12T23:04:10.374Z,22.73
2022-11-12T23:06:59.686Z,21.50
2022-11-12T23:09:47.136Z,22.23
2022-11-12T23:12:35.418Z,21.33
2022-11-12T23:15:23.236Z,22.20
2022-11-12T23:21:04.075Z,20.67
2022-11-12T23:23:53.610Z,24.13
2022-11-12T23:26:41.355Z,22.77
2022-11-12T23:29:29.456Z,24.00
2022-11-12T23:32:19.332Z,22.42
2022-11-12T23:35:08.222Z,25.42
2022-11-12T23:37:55.658Z,22.65
2022-11-12T23:40:55.373Z,20.88
2022-11-12T23:43:43.451Z,22.35
2022-11-12T23:46:31.122Z,22.08
2022-11-12T23:49:18.587Z,22.23
2022-11-12T23:52:06.322Z,20.02
2022-11-12T23:54:53.677Z,19.17
2022-11-12T23:57:44.378Z,25.33
